createdAt,value
2022-11-26T13:25:02.357Z,0.80
2022-11-26T13:28:01.849Z,0.70
2022-11-26T13:31:00.384Z,0.80
2022-11-26T13:34:27.769Z,1.10
2022-11-26T13:37:04.345Z,0.50
2022-11-26T13:40:27.200Z,0.80
2022-11-26T13:43:36.784Z,1.25
2022-11-26T13:46:44.130Z,0.85
2022-11-26T13:50:21.743Z,0.80
2022-11-26T13:53:14.364Z,0.88
2022-11-26T13:56:43.416Z,0.88
2022-11-26T14:00:27.105Z,0.70
2022-11-26T14:03:54.363Z,0.95
2022-11-26T14:07:09.383Z,0.82
2022-11-26T14:09:45.328Z,0.82
2022-11-26T14:13:12.129Z,0.70
2022-11-26T14:16:04.108Z,0.90
2022-11-26T14:19:36.034Z,0.70
2022-11-26T14:22:44.992Z,0.90
2022-11-26T14:26:19.475Z,0.70
2022-11-26T14:29:34.039Z,0.90
2022-11-26T14:33:02.665Z,0.70
2022-11-26T14:36:37.489Z,1.17
2022-11-26T14:39:29.398Z,0.90
2022-11-26T14:42:58.104Z,1.00
2022-11-26T14:46:26.736Z,0.73
2022-11-26T14:49:55.438Z,1.00
2022-11-26T14:53:24.054Z,0.90
2022-11-26T14:56:52.677Z,0.85
2022-11-26T15:00:21.241Z,1.20
2022-11-26T15:04:04.813Z,0.73
2022-11-26T15:07:33.482Z,0.80
2022-11-26T15:11:02.222Z,1.00
2022-11-26T15:14:40.085Z,0.80
2022-11-26T15:18:08.915Z,0.90
2022-11-26T18:14:44.771Z,1.60
2022-11-26T18:17:14.980Z,1.23
2022-11-26T18:19:44.875Z,1.75
2022-11-26T18:22:19.887Z,1.10
2022-11-26T18:24:56.806Z,1.58
2022-11-26T18:27:32.073Z,1.20
2022-11-26T18:30:01.860Z,1.25
2022-11-26T18:32:31.450Z,1.27
2022-11-26T18:35:01.018Z,1.40
2022-11-26T18:37:30.865Z,1.42
2022-11-26T18:40:00.833Z,1.63
2022-11-26T18:42:37.193Z,1.50
2022-11-26T18:46:06.829Z,1.60
2022-11-26T18:49:35.425Z,1.65
2022-11-26T18:53:04.045Z,1.48
2022-11-26T18:56:32.641Z,1.60
2022-11-26T19:00:01.268Z,1.48
2022-11-26T19:03:29.844Z,1.52
2022-11-26T19:06:58.518Z,1.35
2022-11-26T19:10:27.139Z,1.50
2022-11-26T19:13:55.808Z,1.10
2022-11-26T19:17:24.683Z,1.45
2022-11-26T19:20:53.581Z,1.30
2022-11-26T19:24:22.181Z,1.60
2022-11-26T19:27:50.842Z,1.42
2022-11-26T19:31:19.611Z,1.60
2022-11-26T19:34:48.273Z,1.48
2022-11-26T19:38:16.895Z,1.40
2022-11-26T19:41:45.552Z,1.02
2022-11-26T19:45:14.133Z,1.25
2022-11-26T19:48:42.800Z,1.25
2022-11-26T19:52:11.435Z,1.23
2022-11-26T19:55:40.102Z,1.73
2022-11-26T19:59:08.744Z,1.38
2022-11-26T20:02:37.628Z,1.45
2022-11-26T20:06:06.420Z,1.05
2022-11-26T20:09:35.087Z,1.30
2022-11-26T20:13:03.824Z,1.63
2022-11-26T23:41:48.821Z,2.13
2022-11-26T23:45:18.790Z,1.40
2022-11-26T23:48:47.509Z,1.10
2022-11-26T23:52:16.113Z,1.00
2022-11-26T23:55:44.775Z,1.17
2022-11-26T23:59:13.364Z,1.00
